Portada
METAR-TAF:

METAR-TAF

Aeroports :

Xarm al xeic, Egipte

latitud: 27-58N, longitud: 034-23E, altitud: 50 m

Observació

L'informe es va fer fa 1 hora i 5 minuts, a les 13:00 UTC
Vent 13 kt del Nord/Nord-Est
Temperatura 37°C
Humitat 42%
Pressió 1006 hPa
Visibilitat 10 km o més
sense núvols per sota de 1500 mi sense presència de cumulonimbus.

METAR: HESH 201300Z 02013KT CAVOK 37/22 Q1006 NOSIG

Hora: 16:05 (14:05 UTC)

Pronòstic

L'informe es va fer fa 3 hores i 5 minuts, a les 11:00 UTC
Pronòstic vàlid del 20 a les 12 UTC al 21 a les 18 UTC
Vent 15 kt del Nord/Nord-Est
Visibilitat 10 km o més
sense núvols per sota de 1500 mi sense presència de cumulonimbus.

TAF: HESH 201100Z 2012/2118 03015KT CAVOK

Observacions i pronòstics meteorològics de més de 4000 aeroports (METAR i TAF).

Les estacions disponibles són els punts grocs i vermells al mapa.

Posi el ratolí al punt desitjat per veure el nom de l'estació.

Feu clic per veure les observacions i els pronòstics meteorològics.

Per canviar el mapa: feu clic els botons verds amb una creu de color negre per apropar; al botó verd amb un guió per allunyar la imatge; o en les fletxes verdes per a mapes adjacents.


METAR-TAF: